sensor_id;sensor_type;location;lat;lon;timestamp;temperature;humidity
32640;DHT22;19049;52.524;11.468;2023-07-20T00:00:02;16.30;99.90
32640;DHT22;19049;52.524;11.468;2023-07-20T00:02:29;16.30;99.90
32640;DHT22;19049;52.524;11.468;2023-07-20T00:04:55;16.20;99.90
32640;DHT22;19049;52.524;11.468;2023-07-20T00:07:20;16.20;99.90
32640;DHT22;19049;52.524;11.468;2023-07-20T00:09:46;16.20;99.90
32640;DHT22;19049;52.524;11.468;2023-07-20T00:12:11;16.20;99.90
32640;DHT22;19049;52.524;11.468;2023-07-20T00:14:37;16.20;99.90
32640;DHT22;19049;52.524;11.468;2023-07-20T00:17:03;16.10;99.90
32640;DHT22;19049;52.524;11.468;2023-07-20T00:19:28;16.10;99.90
32640;DHT22;19049;52.524;11.468;2023-07-20T00:21:54;16.10;99.90
32640;DHT22;19049;52.524;11.468;2023-07-20T00:24:20;16.10;99.90
32640;DHT22;19049;52.524;11.468;2023-07-20T00:26:46;16.10;99.90
32640;DHT22;19049;52.524;11.468;2023-07-20T00:29:11;16.10;99.90
32640;DHT22;19049;52.524;11.468;2023-07-20T00:31:37;16.20;99.90
32640;DHT22;19049;52.524;11.468;2023-07-20T00:34:04;16.10;99.90
32640;DHT22;19049;52.524;11.468;2023-07-20T00:36:29;16.20;99.90
32640;DHT22;19049;52.524;11.468;2023-07-20T00:38:55;16.20;99.90
32640;DHT22;19049;52.524;11.468;2023-07-20T00:41:21;16.20;99.90
32640;DHT22;19049;52.524;11.468;2023-07-20T00:43:47;16.20;99.90
32640;DHT22;19049;52.524;11.468;2023-07-20T00:46:13;16.20;99.90
32640;DHT22;19049;52.524;11.468;2023-07-20T00:48:40;16.30;99.90
32640;DHT22;19049;52.524;11.468;2023-07-20T00:51:07;16.30;99.90
32640;DHT22;19049;52.524;11.468;2023-07-20T00:53:32;16.30;99.90
32640;DHT22;19049;52.524;11.468;2023-07-20T00:55:58;16.30;99.90
32640;DHT22;19049;52.524;11.468;2023-07-20T00:58:24;16.30;99.90
32640;DHT22;19049;52.524;11.468;2023-07-20T01:00:51;16.30;99.90
32640;DHT22;19049;52.524;11.468;2023-07-20T01:03:17;16.30;99.90
32640;DHT22;19049;52.524;11.468;2023-07-20T01:05:51;16.40;99.90
32640;DHT22;19049;52.524;11.468;2023-07-20T01:08:48;16.40;99.90
32640;DHT22;19049;52.524;11.468;2023-07-20T01:11:23;16.40;99.90
32640;DHT22;19049;52.524;11.468;2023-07-20T01:13:50;16.40;99.90
32640;DHT22;19049;52.524;11.468;2023-07-20T01:16:16;16.40;99.90
32640;DHT22;19049;52.524;11.468;2023-07-20T01:18:41;16.40;99.90
32640;DHT22;19049;52.524;11.468;2023-07-20T01:21:22;16.40;99.90
32640;DHT22;19049;52.524;11.468;2023-07-20T01:27:00;16.30;99.90
32640;DHT22;19049;52.524;11.468;2023-07-20T01:32:01;16.40;99.90
32640;DHT22;19049;52.524;11.468;2023-07-20T01:34:29;16.30;99.90
32640;DHT22;19049;52.524;11.468;2023-07-20T01:36:56;16.30;99.90
32640;DHT22;19049;52.524;11.468;2023-07-20T01:39:23;16.30;99.90
32640;DHT22;19049;52.524;11.468;2023-07-20T01:41:49;16.30;99.90
32640;DHT22;19049;52.524;11.468;2023-07-20T01:44:15;16.20;99.90
32640;DHT22;19049;52.524;11.468;2023-07-20T01:46:41;16.20;99.90
32640;DHT22;19049;52.524;11.468;2023-07-20T01:49:06;16.20;99.90
32640;DHT22;19049;52.524;11.468;2023-07-20T01:51:32;16.20;99.90
32640;DHT22;19049;52.524;11.468;2023-07-20T01:53:57;16.20;99.90
32640;DHT22;19049;52.524;11.468;2023-07-20T01:56:23;16.10;99.90
32640;DHT22;19049;52.524;11.468;2023-07-20T01:58:49;16.10;99.90
32640;DHT22;19049;52.524;11.468;2023-07-20T02:01:14;16.10;99.90
32640;DHT22;19049;52.524;11.468;2023-07-20T02:03:40;16.00;99.90
32640;DHT22;19049;52.524;11.468;2023-07-20T02:06:06;16.00;99.90
32640;DHT22;19049;52.524;11.468;2023-07-20T02:08:31;15.90;99.90
32640;DHT22;19049;52.524;11.468;2023-07-20T02:10:57;15.90;99.90
32640;DHT22;19049;52.524;11.468;2023-07-20T02:13:23;15.80;99.90
32640;DHT22;19049;52.524;11.468;2023-07-20T02:15:48;15.90;99.90
32640;DHT22;19049;52.524;11.468;2023-07-20T02:18:15;15.80;99.90
32640;DHT22;19049;52.524;11.468;2023-07-20T02:20:41;15.90;99.90
32640;DHT22;19049;52.524;11.468;2023-07-20T02:23:07;15.80;99.90
32640;DHT22;19049;52.524;11.468;2023-07-20T02:25:32;15.50;99.90
32640;DHT22;19049;52.524;11.468;2023-07-20T02:27:58;15.40;99.90
32640;DHT22;19049;52.524;11.468;2023-07-20T02:30:24;15.70;99.90
32640;DHT22;19049;52.524;11.468;2023-07-20T02:35:16;15.50;99.90
32640;DHT22;19049;52.524;11.468;2023-07-20T02:37:41;14.90;99.90
32640;DHT22;19049;52.524;11.468;2023-07-20T02:40:07;15.00;99.90
32640;DHT22;19049;52.524;11.468;2023-07-20T02:42:34;15.90;99.90
32640;DHT22;19049;52.524;11.468;2023-07-20T02:45:02;15.20;99.90
32640;DHT22;19049;52.524;11.468;2023-07-20T02:47:29;15.00;99.90
32640;DHT22;19049;52.524;11.468;2023-07-20T02:49:54;14.70;99.90
32640;DHT22;19049;52.524;11.468;2023-07-20T02:54:46;15.40;99.90
32640;DHT22;19049;52.524;11.468;2023-07-20T02:59:38;14.90;99.90
32640;DHT22;19049;52.524;11.468;2023-07-20T03:02:03;15.00;99.90
32640;DHT22;19049;52.524;11.468;2023-07-20T03:04:29;14.40;99.90
32640;DHT22;19049;52.524;11.468;2023-07-20T03:06:55;14.80;99.90
32640;DHT22;19049;52.524;11.468;2023-07-20T03:14:13;15.00;99.90
32640;DHT22;19049;52.524;11.468;2023-07-20T03:16:39;14.30;99.90
32640;DHT22;19049;52.524;11.468;2023-07-20T03:19:04;15.30;99.90
32640;DHT22;19049;52.524;11.468;2023-07-20T03:21:30;15.30;99.90
32640;DHT22;19049;52.524;11.468;2023-07-20T03:26:22;14.60;99.90
32640;DHT22;19049;52.524;11.468;2023-07-20T03:28:48;14.90;99.90
32640;DHT22;19049;52.524;11.468;2023-07-20T03:41:00;14.90;99.90
32640;DHT22;19049;52.524;11.468;2023-07-20T03:43:27;15.20;99.90
32640;DHT22;19049;52.524;11.468;2023-07-20T03:48:21;15.20;99.90
32640;DHT22;19049;52.524;11.468;2023-07-20T03:50:48;15.20;99.90
32640;DHT22;19049;52.524;11.468;2023-07-20T03:55:41;15.10;99.90
32640;DHT22;19049;52.524;11.468;2023-07-20T04:00:34;14.90;99.90
32640;DHT22;19049;52.524;11.468;2023-07-20T04:10:19;15.00;99.90
32640;DHT22;19049;52.524;11.468;2023-07-20T04:12:45;15.00;99.90
32640;DHT22;19049;52.524;11.468;2023-07-20T04:15:12;15.30;99.90
32640;DHT22;19049;52.524;11.468;2023-07-20T04:17:38;14.90;99.90
32640;DHT22;19049;52.524;11.468;2023-07-20T04:20:05;14.70;99.90
32640;DHT22;19049;52.524;11.468;2023-07-20T04:22:31;14.90;99.90
32640;DHT22;19049;52.524;11.468;2023-07-20T04:27:23;15.10;99.90
32640;DHT22;19049;52.524;11.468;2023-07-20T04:29:49;15.90;99.90
32640;DHT22;19049;52.524;11.468;2023-07-20T04:32:14;15.70;99.90
32640;DHT22;19049;52.524;11.468;2023-07-20T04:37:06;15.70;99.90
32640;DHT22;19049;52.524;11.468;2023-07-20T04:39:31;16.50;99.90
32640;DHT22;19049;52.524;11.468;2023-07-20T04:41:57;16.50;99.90
32640;DHT22;19049;52.524;11.468;2023-07-20T04:44:23;16.30;99.90
32640;DHT22;19049;52.524;11.468;2023-07-20T04:46:49;16.70;99.90
32640;DHT22;19049;52.524;11.468;2023-07-20T04:49:14;16.50;99.90
32640;DHT22;19049;52.524;11.468;2023-07-20T04:51:40;16.60;99.90
32640;DHT22;19049;52.524;11.468;2023-07-20T04:54:06;16.90;99.90
32640;DHT22;19049;52.524;11.468;2023-07-20T04:56:31;16.80;99.90
32640;DHT22;19049;52.524;11.468;2023-07-20T04:58:58;16.60;99.90
32640;DHT22;19049;52.524;11.468;2023-07-20T05:08:44;17.40;99.90
32640;DHT22;19049;52.524;11.468;2023-07-20T05:11:10;16.70;99.90
32640;DHT22;19049;52.524;11.468;2023-07-20T05:13:36;17.10;99.90
32640;DHT22;19049;52.524;11.468;2023-07-20T05:16:02;17.20;99.90
32640;DHT22;19049;52.524;11.468;2023-07-20T05:18:28;17.20;99.90
32640;DHT22;19049;52.524;11.468;2023-07-20T05:20:53;17.80;99.90
32640;DHT22;19049;52.524;11.468;2023-07-20T05:25:47;17.10;99.90
32640;DHT22;19049;52.524;11.468;2023-07-20T05:28:12;17.60;99.90
32640;DHT22;19049;52.524;11.468;2023-07-20T05:30:39;17.10;99.90
32640;DHT22;19049;52.524;11.468;2023-07-20T05:33:05;16.80;99.90
32640;DHT22;19049;52.524;11.468;2023-07-20T05:35:31;15.50;99.90
32640;DHT22;19049;52.524;11.468;2023-07-20T05:40:22;17.10;99.90
32640;DHT22;19049;52.524;11.468;2023-07-20T05:42:48;17.30;99.90
32640;DHT22;19049;52.524;11.468;2023-07-20T05:45:17;17.20;99.90
32640;DHT22;19049;52.524;11.468;2023-07-20T05:47:43;17.20;99.90
32640;DHT22;19049;52.524;11.468;2023-07-20T05:50:10;17.20;99.90
32640;DHT22;19049;52.524;11.468;2023-07-20T05:52:36;17.40;99.90
32640;DHT22;19049;52.524;11.468;2023-07-20T05:55:04;17.70;99.90
32640;DHT22;19049;52.524;11.468;2023-07-20T05:57:30;17.80;99.90
32640;DHT22;19049;52.524;11.468;2023-07-20T05:59:56;18.40;99.90
32640;DHT22;19049;52.524;11.468;2023-07-20T06:02:21;18.20;99.90
32640;DHT22;19049;52.524;11.468;2023-07-20T06:04:47;18.40;99.90
32640;DHT22;19049;52.524;11.468;2023-07-20T06:07:13;18.70;99.90
32640;DHT22;19049;52.524;11.468;2023-07-20T06:09:39;18.90;99.90
32640;DHT22;19049;52.524;11.468;2023-07-20T06:12:05;19.00;99.90
32640;DHT22;19049;52.524;11.468;2023-07-20T06:14:30;19.10;99.90
32640;DHT22;19049;52.524;11.468;2023-07-20T06:16:56;19.20;99.90
32640;DHT22;19049;52.524;11.468;2023-07-20T06:19:22;19.20;99.90
32640;DHT22;19049;52.524;11.468;2023-07-20T06:21:50;19.60;99.90
32640;DHT22;19049;52.524;11.468;2023-07-20T06:24:17;19.50;99.90
32640;DHT22;19049;52.524;11.468;2023-07-20T06:26:42;19.00;99.90
32640;DHT22;19049;52.524;11.468;2023-07-20T06:29:08;19.60;99.90
32640;DHT22;19049;52.524;11.468;2023-07-20T06:31:35;18.80;99.90
32640;DHT22;19049;52.524;11.468;2023-07-20T06:34:01;19.70;99.90
32640;DHT22;19049;52.524;11.468;2023-07-20T06:38:54;18.80;99.90
32640;DHT22;19049;52.524;11.468;2023-07-20T06:41:20;19.30;99.90
32640;DHT22;19049;52.524;11.468;2023-07-20T06:43:45;19.70;99.90
32640;DHT22;19049;52.524;11.468;2023-07-20T06:46:11;19.10;99.90
32640;DHT22;19049;52.524;11.468;2023-07-20T06:53:30;18.80;99.90
32640;DHT22;19049;52.524;11.468;2023-07-20T06:58:25;19.30;99.90
32640;DHT22;19049;52.524;11.468;2023-07-20T07:00:51;19.30;99.90
32640;DHT22;19049;52.524;11.468;2023-07-20T07:03:17;18.90;99.90
32640;DHT22;19049;52.524;11.468;2023-07-20T07:05:43;18.80;99.90
32640;DHT22;19049;52.524;11.468;2023-07-20T07:08:11;18.20;99.90
32640;DHT22;19049;52.524;11.468;2023-07-20T07:13:03;18.90;99.90
32640;DHT22;19049;52.524;11.468;2023-07-20T07:15:29;19.10;99.90
32640;DHT22;19049;52.524;11.468;2023-07-20T07:17:55;19.30;99.90
32640;DHT22;19049;52.524;11.468;2023-07-20T07:22:50;18.90;99.90
32640;DHT22;19049;52.524;11.468;2023-07-20T07:25:17;19.10;99.90
32640;DHT22;19049;52.524;11.468;2023-07-20T07:30:09;18.60;99.90
32640;DHT22;19049;52.524;11.468;2023-07-20T07:35:01;19.20;99.90
32640;DHT22;19049;52.524;11.468;2023-07-20T07:39:53;18.80;99.90
32640;DHT22;19049;52.524;11.468;2023-07-20T07:42:18;18.70;99.90
32640;DHT22;19049;52.524;11.468;2023-07-20T07:44:45;18.60;99.90
32640;DHT22;19049;52.524;11.468;2023-07-20T07:47:10;18.60;99.90
32640;DHT22;19049;52.524;11.468;2023-07-20T07:49:36;18.60;99.90
32640;DHT22;19049;52.524;11.468;2023-07-20T07:52:02;18.60;99.90
32640;DHT22;19049;52.524;11.468;2023-07-20T07:54:28;18.60;99.90
32640;DHT22;19049;52.524;11.468;2023-07-20T07:56:54;18.70;99.90
32640;DHT22;19049;52.524;11.468;2023-07-20T07:59:20;18.70;99.90
32640;DHT22;19049;52.524;11.468;2023-07-20T08:01:46;18.60;99.90
32640;DHT22;19049;52.524;11.468;2023-07-20T08:04:11;18.70;99.90
32640;DHT22;19049;52.524;11.468;2023-07-20T08:06:38;18.60;99.90
32640;DHT22;19049;52.524;11.468;2023-07-20T08:09:04;18.60;99.90
32640;DHT22;19049;52.524;11.468;2023-07-20T08:11:30;18.60;99.90
32640;DHT22;19049;52.524;11.468;2023-07-20T08:14:01;18.70;99.90
32640;DHT22;19049;52.524;11.468;2023-07-20T08:16:27;18.80;99.90
32640;DHT22;19049;52.524;11.468;2023-07-20T08:18:53;18.90;99.90
32640;DHT22;19049;52.524;11.468;2023-07-20T08:23:45;19.20;99.90
32640;DHT22;19049;52.524;11.468;2023-07-20T08:31:05;19.20;99.90
32640;DHT22;19049;52.524;11.468;2023-07-20T08:33:31;19.70;99.90
32640;DHT22;19049;52.524;11.468;2023-07-20T08:36:00;19.80;99.90
32640;DHT22;19049;52.524;11.468;2023-07-20T08:38:26;20.00;99.90
32640;DHT22;19049;52.524;11.468;2023-07-20T08:43:20;20.50;99.90
32640;DHT22;19049;52.524;11.468;2023-07-20T08:45:50;20.50;99.90
32640;DHT22;19049;52.524;11.468;2023-07-20T08:48:18;20.90;99.90
32640;DHT22;19049;52.524;11.468;2023-07-20T08:50:46;20.80;99.90
32640;DHT22;19049;52.524;11.468;2023-07-20T08:53:13;20.50;99.90
32640;DHT22;19049;52.524;11.468;2023-07-20T08:55:40;20.60;99.90
32640;DHT22;19049;52.524;11.468;2023-07-20T08:58:08;20.60;99.90
32640;DHT22;19049;52.524;11.468;2023-07-20T09:00:36;20.90;99.90
32640;DHT22;19049;52.524;11.468;2023-07-20T09:03:03;20.60;99.90
32640;DHT22;19049;52.524;11.468;2023-07-20T09:05:29;21.20;99.90
32640;DHT22;19049;52.524;11.468;2023-07-20T09:07:55;21.60;99.90
32640;DHT22;19049;52.524;11.468;2023-07-20T09:10:22;21.70;99.90
32640;DHT22;19049;52.524;11.468;2023-07-20T09:12:48;22.10;99.90
32640;DHT22;19049;52.524;11.468;2023-07-20T09:15:15;22.30;99.90
32640;DHT22;19049;52.524;11.468;2023-07-20T09:17:51;22.30;99.90
32640;DHT22;19049;52.524;11.468;2023-07-20T09:20:19;22.60;99.90
32640;DHT22;19049;52.524;11.468;2023-07-20T09:22:45;22.90;99.90
32640;DHT22;19049;52.524;11.468;2023-07-20T09:25:13;23.00;99.50
32640;DHT22;19049;52.524;11.468;2023-07-20T09:27:44;23.20;99.80
32640;DHT22;19049;52.524;11.468;2023-07-20T09:30:10;23.20;98.70
32640;DHT22;19049;52.524;11.468;2023-07-20T09:32:47;23.20;97.20
32640;DHT22;19049;52.524;11.468;2023-07-20T09:35:14;23.20;95.90
32640;DHT22;19049;52.524;11.468;2023-07-20T09:37:45;23.10;97.70
32640;DHT22;19049;52.524;11.468;2023-07-20T09:40:15;23.20;98.00
32640;DHT22;19049;52.524;11.468;2023-07-20T09:42:42;23.20;98.20
32640;DHT22;19049;52.524;11.468;2023-07-20T09:45:08;23.30;96.90
32640;DHT22;19049;52.524;11.468;2023-07-20T09:47:36;23.30;97.50
32640;DHT22;19049;52.524;11.468;2023-07-20T09:50:07;23.40;97.50
32640;DHT22;19049;52.524;11.468;2023-07-20T09:52:42;23.50;97.00
32640;DHT22;19049;52.524;11.468;2023-07-20T09:55:10;23.70;96.00
32640;DHT22;19049;52.524;11.468;2023-07-20T09:57:37;23.80;95.90
32640;DHT22;19049;52.524;11.468;2023-07-20T10:00:05;23.90;97.50
32640;DHT22;19049;52.524;11.468;2023-07-20T10:02:42;23.90;96.40
32640;DHT22;19049;52.524;11.468;2023-07-20T10:05:10;23.90;94.00
32640;DHT22;19049;52.524;11.468;2023-07-20T10:07:47;23.90;95.30
32640;DHT22;19049;52.524;11.468;2023-07-20T10:10:17;23.90;93.60
32640;DHT22;19049;52.524;11.468;2023-07-20T10:12:48;23.80;93.80
32640;DHT22;19049;52.524;11.468;2023-07-20T10:17:56;23.50;94.80
32640;DHT22;19049;52.524;11.468;2023-07-20T10:20:23;23.60;97.20
32640;DHT22;19049;52.524;11.468;2023-07-20T10:22:53;23.70;97.50
32640;DHT22;19049;52.524;11.468;2023-07-20T10:25:21;23.80;96.90
32640;DHT22;19049;52.524;11.468;2023-07-20T10:27:48;24.00;95.70
32640;DHT22;19049;52.524;11.468;2023-07-20T10:30:14;24.10;93.50
32640;DHT22;19049;52.524;11.468;2023-07-20T10:32:40;24.10;92.60
32640;DHT22;19049;52.524;11.468;2023-07-20T10:35:15;24.30;93.20
32640;DHT22;19049;52.524;11.468;2023-07-20T10:37:54;24.40;90.30
32640;DHT22;19049;52.524;11.468;2023-07-20T10:40:30;24.60;91.30
32640;DHT22;19049;52.524;11.468;2023-07-20T10:43:00;24.90;96.90
32640;DHT22;19049;52.524;11.468;2023-07-20T10:48:03;25.00;92.40
32640;DHT22;19049;52.524;11.468;2023-07-20T10:50:29;25.10;93.90
32640;DHT22;19049;52.524;11.468;2023-07-20T10:53:13;25.10;93.20
32640;DHT22;19049;52.524;11.468;2023-07-20T10:55:40;25.00;92.50
32640;DHT22;19049;52.524;11.468;2023-07-20T10:58:14;24.90;91.40
32640;DHT22;19049;52.524;11.468;2023-07-20T11:01:02;24.70;86.50
32640;DHT22;19049;52.524;11.468;2023-07-20T11:03:32;24.60;92.30
32640;DHT22;19049;52.524;11.468;2023-07-20T11:05:58;24.70;92.00
32640;DHT22;19049;52.524;11.468;2023-07-20T11:08:43;24.90;92.80
32640;DHT22;19049;52.524;11.468;2023-07-20T11:13:59;26.10;98.10
32640;DHT22;19049;52.524;11.468;2023-07-20T11:16:40;26.00;96.80
32640;DHT22;19049;52.524;11.468;2023-07-20T11:19:14;25.90;94.00
32640;DHT22;19049;52.524;11.468;2023-07-20T11:21:45;25.70;90.80
32640;DHT22;19049;52.524;11.468;2023-07-20T11:24:11;25.70;87.10
32640;DHT22;19049;52.524;11.468;2023-07-20T11:26:47;24.70;93.10
32640;DHT22;19049;52.524;11.468;2023-07-20T11:29:16;24.40;94.20
32640;DHT22;19049;52.524;11.468;2023-07-20T11:31:43;24.90;81.50
32640;DHT22;19049;52.524;11.468;2023-07-20T11:34:13;24.80;81.50
32640;DHT22;19049;52.524;11.468;2023-07-20T11:36:40;24.80;78.60
32640;DHT22;19049;52.524;11.468;2023-07-20T11:39:08;24.70;84.30
32640;DHT22;19049;52.524;11.468;2023-07-20T11:41:34;24.50;88.30
32640;DHT22;19049;52.524;11.468;2023-07-20T11:44:00;24.40;90.40
32640;DHT22;19049;52.524;11.468;2023-07-20T11:46:27;24.40;91.40
32640;DHT22;19049;52.524;11.468;2023-07-20T11:48:58;24.30;90.30
32640;DHT22;19049;52.524;11.468;2023-07-20T11:51:28;24.10;90.40
32640;DHT22;19049;52.524;11.468;2023-07-20T11:53:55;24.10;91.90
32640;DHT22;19049;52.524;11.468;2023-07-20T11:56:25;23.90;91.50
32640;DHT22;19049;52.524;11.468;2023-07-20T11:58:54;23.80;89.40
32640;DHT22;19049;52.524;11.468;2023-07-20T12:01:20;23.60;88.80
32640;DHT22;19049;52.524;11.468;2023-07-20T12:03:47;23.50;87.50
32640;DHT22;19049;52.524;11.468;2023-07-20T12:06:13;23.20;89.10
32640;DHT22;19049;52.524;11.468;2023-07-20T12:08:40;23.40;94.30
32640;DHT22;19049;52.524;11.468;2023-07-20T12:11:07;22.80;84.00
32640;DHT22;19049;52.524;11.468;2023-07-20T12:13:37;22.70;84.50
32640;DHT22;19049;52.524;11.468;2023-07-20T12:16:13;22.60;86.40
32640;DHT22;19049;52.524;11.468;2023-07-20T12:18:40;22.70;87.00
32640;DHT22;19049;52.524;11.468;2023-07-20T12:21:06;22.90;86.40
32640;DHT22;19049;52.524;11.468;2023-07-20T12:23:38;23.20;86.40
32640;DHT22;19049;52.524;11.468;2023-07-20T12:26:08;23.60;83.00
32640;DHT22;19049;52.524;11.468;2023-07-20T12:28:39;24.10;92.50
32640;DHT22;19049;52.524;11.468;2023-07-20T12:31:09;24.40;87.40
32640;DHT22;19049;52.524;11.468;2023-07-20T12:33:36;24.90;84.10
32640;DHT22;19049;52.524;11.468;2023-07-20T12:36:02;25.30;84.40
32640;DHT22;19049;52.524;11.468;2023-07-20T12:38:28;25.20;94.30
32640;DHT22;19049;52.524;11.468;2023-07-20T12:40:54;26.20;87.30
32640;DHT22;19049;52.524;11.468;2023-07-20T12:43:24;25.60;92.70
32640;DHT22;19049;52.524;11.468;2023-07-20T12:45:50;26.50;91.80
32640;DHT22;19049;52.524;11.468;2023-07-20T12:48:15;26.60;93.60
32640;DHT22;19049;52.524;11.468;2023-07-20T12:53:07;26.10;92.90
32640;DHT22;19049;52.524;11.468;2023-07-20T12:57:59;24.50;92.00
32640;DHT22;19049;52.524;11.468;2023-07-20T13:00:25;25.20;81.40
32640;DHT22;19049;52.524;11.468;2023-07-20T13:02:51;25.10;84.30
32640;DHT22;19049;52.524;11.468;2023-07-20T13:05:17;25.00;83.40
32640;DHT22;19049;52.524;11.468;2023-07-20T13:07:43;25.00;85.00
32640;DHT22;19049;52.524;11.468;2023-07-20T13:10:10;25.00;87.50
32640;DHT22;19049;52.524;11.468;2023-07-20T13:12:37;25.00;88.70
32640;DHT22;19049;52.524;11.468;2023-07-20T13:15:07;25.20;88.60
32640;DHT22;19049;52.524;11.468;2023-07-20T13:17:34;25.40;90.00
32640;DHT22;19049;52.524;11.468;2023-07-20T13:20:00;25.50;87.80
32640;DHT22;19049;52.524;11.468;2023-07-20T13:22:26;25.60;84.30
32640;DHT22;19049;52.524;11.468;2023-07-20T13:24:52;25.60;77.60
32640;DHT22;19049;52.524;11.468;2023-07-20T13:27:18;25.60;94.60
32640;DHT22;19049;52.524;11.468;2023-07-20T13:32:13;26.20;80.90
32640;DHT22;19049;52.524;11.468;2023-07-20T13:34:44;25.80;80.70
32640;DHT22;19049;52.524;11.468;2023-07-20T13:37:10;25.70;70.30
32640;DHT22;19049;52.524;11.468;2023-07-20T13:39:37;26.20;90.90
32640;DHT22;19049;52.524;11.468;2023-07-20T13:42:03;25.00;93.30
32640;DHT22;19049;52.524;11.468;2023-07-20T13:44:33;25.50;93.60
32640;DHT22;19049;52.524;11.468;2023-07-20T13:47:00;26.40;91.20
32640;DHT22;19049;52.524;11.468;2023-07-20T13:49:26;25.80;74.00
32640;DHT22;19049;52.524;11.468;2023-07-20T13:51:52;25.90;76.00
32640;DHT22;19049;52.524;11.468;2023-07-20T13:54:18;25.90;77.10
32640;DHT22;19049;52.524;11.468;2023-07-20T13:56:43;25.90;79.00
32640;DHT22;19049;52.524;11.468;2023-07-20T13:59:09;25.90;74.40
32640;DHT22;19049;52.524;11.468;2023-07-20T14:01:35;25.80;70.70
32640;DHT22;19049;52.524;11.468;2023-07-20T14:04:01;26.00;90.90
32640;DHT22;19049;52.524;11.468;2023-07-20T14:06:30;26.20;93.10
32640;DHT22;19049;52.524;11.468;2023-07-20T14:11:23;25.80;79.20
32640;DHT22;19049;52.524;11.468;2023-07-20T14:13:49;26.20;89.60
32640;DHT22;19049;52.524;11.468;2023-07-20T14:21:07;27.10;91.50
32640;DHT22;19049;52.524;11.468;2023-07-20T14:23:33;27.10;78.70
32640;DHT22;19049;52.524;11.468;2023-07-20T14:25:58;27.20;78.00
32640;DHT22;19049;52.524;11.468;2023-07-20T14:28:24;27.30;78.40
32640;DHT22;19049;52.524;11.468;2023-07-20T14:30:50;27.50;98.00
32640;DHT22;19049;52.524;11.468;2023-07-20T14:33:16;27.50;98.00
32640;DHT22;19049;52.524;11.468;2023-07-20T14:35:41;27.50;97.80
32640;DHT22;19049;52.524;11.468;2023-07-20T14:38:07;27.30;96.30
32640;DHT22;19049;52.524;11.468;2023-07-20T14:40:33;27.50;97.30
32640;DHT22;19049;52.524;11.468;2023-07-20T14:42:59;27.30;74.60
32640;DHT22;19049;52.524;11.468;2023-07-20T14:45:27;27.70;73.40
32640;DHT22;19049;52.524;11.468;2023-07-20T14:50:22;28.10;67.50
32640;DHT22;19049;52.524;11.468;2023-07-20T15:00:07;27.90;58.30
32640;DHT22;19049;52.524;11.468;2023-07-20T15:09:55;26.90;73.00
32640;DHT22;19049;52.524;11.468;2023-07-20T15:12:20;26.50;73.30
32640;DHT22;19049;52.524;11.468;2023-07-20T15:15:05;26.80;74.60
32640;DHT22;19049;52.524;11.468;2023-07-20T15:17:32;26.00;59.60
32640;DHT22;19049;52.524;11.468;2023-07-20T15:19:57;26.40;73.80
32640;DHT22;19049;52.524;11.468;2023-07-20T15:22:24;25.40;76.70
32640;DHT22;19049;52.524;11.468;2023-07-20T15:29:42;25.20;77.00
32640;DHT22;19049;52.524;11.468;2023-07-20T15:41:55;24.90;81.70
32640;DHT22;19049;52.524;11.468;2023-07-20T15:44:21;25.00;82.20
32640;DHT22;19049;52.524;11.468;2023-07-20T15:46:48;24.80;81.90
32640;DHT22;19049;52.524;11.468;2023-07-20T15:49:14;24.20;71.70
32640;DHT22;19049;52.524;11.468;2023-07-20T15:51:41;23.70;78.30
32640;DHT22;19049;52.524;11.468;2023-07-20T15:54:11;24.10;68.10
32640;DHT22;19049;52.524;11.468;2023-07-20T15:56:38;23.60;79.80
32640;DHT22;19049;52.524;11.468;2023-07-20T15:59:05;23.30;79.60
32640;DHT22;19049;52.524;11.468;2023-07-20T16:01:31;23.10;84.80
32640;DHT22;19049;52.524;11.468;2023-07-20T16:06:25;23.60;72.60
32640;DHT22;19049;52.524;11.468;2023-07-20T16:08:50;23.90;75.40
32640;DHT22;19049;52.524;11.468;2023-07-20T16:11:17;24.70;89.10
32640;DHT22;19049;52.524;11.468;2023-07-20T16:16:10;24.70;73.90
32640;DHT22;19049;52.524;11.468;2023-07-20T16:30:47;24.40;84.90
32640;DHT22;19049;52.524;11.468;2023-07-20T16:35:39;24.30;72.60
32640;DHT22;19049;52.524;11.468;2023-07-20T16:40:37;24.70;90.70
32640;DHT22;19049;52.524;11.468;2023-07-20T16:55:14;24.90;76.60
32640;DHT22;19049;52.524;11.468;2023-07-20T17:00:06;25.30;90.90
32640;DHT22;19049;52.524;11.468;2023-07-20T17:07:28;25.30;89.40
32640;DHT22;19049;52.524;11.468;2023-07-20T17:09:53;26.00;85.10
32640;DHT22;19049;52.524;11.468;2023-07-20T17:14:45;25.60;85.60
32640;DHT22;19049;52.524;11.468;2023-07-20T17:19:37;25.90;76.60
32640;DHT22;19049;52.524;11.468;2023-07-20T17:26:55;27.40;88.90
32640;DHT22;19049;52.524;11.468;2023-07-20T17:31:47;26.30;85.70
32640;DHT22;19049;52.524;11.468;2023-07-20T17:34:12;27.20;85.70
32640;DHT22;19049;52.524;11.468;2023-07-20T17:36:38;26.30;81.40
32640;DHT22;19049;52.524;11.468;2023-07-20T17:39:04;25.90;84.60
32640;DHT22;19049;52.524;11.468;2023-07-20T17:43:56;25.90;85.70
32640;DHT22;19049;52.524;11.468;2023-07-20T17:46:22;26.20;86.30
32640;DHT22;19049;52.524;11.468;2023-07-20T17:48:48;26.50;84.70
32640;DHT22;19049;52.524;11.468;2023-07-20T17:53:40;26.40;84.20
32640;DHT22;19049;52.524;11.468;2023-07-20T18:00:59;25.00;86.90
32640;DHT22;19049;52.524;11.468;2023-07-20T18:03:25;25.80;87.30
32640;DHT22;19049;52.524;11.468;2023-07-20T18:08:17;24.70;83.90
32640;DHT22;19049;52.524;11.468;2023-07-20T18:10:43;25.30;87.00
32640;DHT22;19049;52.524;11.468;2023-07-20T18:13:08;25.10;73.30
32640;DHT22;19049;52.524;11.468;2023-07-20T18:15:34;24.90;75.00
32640;DHT22;19049;52.524;11.468;2023-07-20T18:18:00;24.90;85.00
32640;DHT22;19049;52.524;11.468;2023-07-20T18:20:26;24.50;75.00
32640;DHT22;19049;52.524;11.468;2023-07-20T18:22:52;24.30;76.70
32640;DHT22;19049;52.524;11.468;2023-07-20T18:25:19;24.20;90.00
32640;DHT22;19049;52.524;11.468;2023-07-20T18:27:45;23.80;76.80
32640;DHT22;19049;52.524;11.468;2023-07-20T18:35:10;22.50;87.10
32640;DHT22;19049;52.524;11.468;2023-07-20T18:37:37;22.30;92.50
32640;DHT22;19049;52.524;11.468;2023-07-20T18:40:03;22.20;89.90
32640;DHT22;19049;52.524;11.468;2023-07-20T18:42:29;21.60;92.80
32640;DHT22;19049;52.524;11.468;2023-07-20T18:44:55;21.70;82.20
32640;DHT22;19049;52.524;11.468;2023-07-20T18:47:21;21.50;82.90
32640;DHT22;19049;52.524;11.468;2023-07-20T18:49:46;21.30;84.10
32640;DHT22;19049;52.524;11.468;2023-07-20T18:52:12;21.10;84.70